Time;durP1;ratioP1;P1;durP2;ratioP2;P2;SDS_P1;SDS_P2;PMS_P1;PMS_P2;Temp;Humidity;BMP_temperature;BMP_pressure;BME280_temperature;BME280_humidity;BME280_pressure;Samples;Min_cycle;Max_cycle;Signal;HPM_P1;HPM_P2
2023/04/15 00:00:37;;;;;;;1.65;1.55;;;;;;;;;;5092772;28;20031;-63
2023/04/15 00:03:05;;;;;;;1.50;1.40;;;;;;;;;;5092497;28;20032;-63
2023/04/15 00:05:31;;;;;;;1.60;1.50;;;;;;;;;;5092840;28;20507;-63
2023/04/15 00:07:57;;;;;;;1.90;1.60;;;;;;;;;;5092893;28;20131;-63
2023/04/15 00:10:24;;;;;;;1.70;1.60;;;;;;;;;;5093160;28;20059;-63
2023/04/15 00:12:51;;;;;;;1.52;1.40;;;;;;;;;;5092451;28;20055;-63
2023/04/15 00:15:17;;;;;;;1.92;1.70;;;;;;;;;;5093011;28;20024;-63
2023/04/15 00:17:42;;;;;;;2.30;1.85;;;;;;;;;;5092765;28;20086;-63
2023/04/15 00:20:09;;;;;;;1.60;1.40;;;;;;;;;;5092743;28;20024;-63
2023/04/15 00:22:35;;;;;;;2.78;1.63;;;;;;;;;;5092270;28;20024;-63
2023/04/15 00:25:01;;;;;;;2.85;1.70;;;;;;;;;;5092506;28;20028;-63
2023/04/15 00:27:27;;;;;;;2.05;1.80;;;;;;;;;;5092069;28;20031;-63
2023/04/15 00:29:52;;;;;;;2.15;1.55;;;;;;;;;;5092669;28;20046;-63
2023/04/15 00:32:19;;;;;;;1.70;1.50;;;;;;;;;;5092210;28;20024;-63
2023/04/15 00:34:45;;;;;;;1.50;1.30;;;;;;;;;;5092301;28;20404;-63
2023/04/15 00:37:10;;;;;;;1.63;1.50;;;;;;;;;;5092483;28;20027;-63
2023/04/15 00:39:36;;;;;;;1.65;1.55;;;;;;;;;;5092542;28;20383;-63
2023/04/15 00:42:03;;;;;;;1.60;1.50;;;;;;;;;;5092227;28;20032;-63
2023/04/15 00:44:29;;;;;;;1.77;1.60;;;;;;;;;;5092649;28;20024;-63
2023/04/15 00:46:55;;;;;;;3.10;1.45;;;;;;;;;;5092122;28;20501;-63
2023/04/15 00:49:22;;;;;;;1.90;1.60;;;;;;;;;;5092600;28;20099;-62
2023/04/15 00:51:48;;;;;;;1.60;1.50;;;;;;;;;;5074294;28;20016;-62
2023/04/15 00:54:13;;;;;;;1.55;1.45;;;;;;;;;;5092029;28;20031;-62
2023/04/15 00:56:39;;;;;;;1.60;1.50;;;;;;;;;;5092099;28;20031;-62
2023/04/15 00:59:06;;;;;;;2.00;1.60;;;;;;;;;;5092604;28;20024;-62
2023/04/15 01:01:37;;;;;;;1.60;1.50;;;;;;;;;;5092225;28;20038;-62
2023/04/15 01:04:03;;;;;;;1.58;1.48;;;;;;;;;;5092313;28;20386;-62
2023/04/15 01:06:31;;;;;;;2.50;1.50;;;;;;;;;;5092157;28;20024;-63
2023/04/15 01:08:57;;;;;;;1.58;1.48;;;;;;;;;;5092075;28;20020;-63
2023/04/15 01:11:23;;;;;;;1.55;1.42;;;;;;;;;;5092122;28;20476;-63
2023/04/15 01:13:50;;;;;;;1.70;1.60;;;;;;;;;;5092085;28;20029;-62
2023/04/15 01:16:17;;;;;;;1.92;1.58;;;;;;;;;;5092072;28;20020;-62
2023/04/15 01:18:42;;;;;;;2.08;1.48;;;;;;;;;;5092462;28;20036;-62
2023/04/15 01:21:08;;;;;;;2.58;1.75;;;;;;;;;;5092376;28;20377;-62
2023/04/15 01:23:38;;;;;;;1.67;1.50;;;;;;;;;;5091822;28;20467;-63
2023/04/15 01:26:10;;;;;;;1.67;1.58;;;;;;;;;;5092630;28;20051;-63
2023/04/15 01:28:37;;;;;;;1.58;1.42;;;;;;;;;;5092366;28;20020;-62
2023/04/15 01:31:12;;;;;;;2.63;1.42;;;;;;;;;;5092127;28;20043;-63
2023/04/15 01:33:41;;;;;;;1.80;1.55;;;;;;;;;;5091952;28;20042;-62
2023/04/15 01:36:08;;;;;;;1.70;1.60;;;;;;;;;;5091985;28;20384;-62
2023/04/15 01:38:35;;;;;;;1.50;1.40;;;;;;;;;;5095154;28;20124;-62
2023/04/15 01:41:03;;;;;;;1.60;1.50;;;;;;;;;;5095672;28;20468;-62
2023/04/15 01:43:28;;;;;;;1.42;1.33;;;;;;;;;;5095575;28;20114;-63
2023/04/15 01:45:55;;;;;;;1.60;1.50;;;;;;;;;;5095646;28;20119;-62
2023/04/15 01:48:21;;;;;;;1.75;1.52;;;;;;;;;;5095640;28;20065;-63
2023/04/15 01:50:46;;;;;;;2.08;1.67;;;;;;;;;;5095573;28;20028;-62
2023/04/15 01:53:12;;;;;;;1.50;1.40;;;;;;;;;;5095468;28;20472;-63
2023/04/15 01:55:38;;;;;;;1.48;1.38;;;;;;;;;;5095545;28;20039;-62
2023/04/15 01:58:03;;;;;;;1.55;1.38;;;;;;;;;;5094189;28;20060;-62
2023/04/15 02:00:31;;;;;;;1.83;1.70;;;;;;;;;;5092605;28;20468;-63
2023/04/15 02:02:58;;;;;;;1.60;1.48;;;;;;;;;;5094493;28;20023;-63
2023/04/15 02:05:24;;;;;;;1.73;1.60;;;;;;;;;;5093940;28;20027;-63
2023/04/15 02:07:49;;;;;;;1.58;1.48;;;;;;;;;;5094396;28;20027;-63
2023/04/15 02:10:15;;;;;;;1.52;1.42;;;;;;;;;;5094797;28;20016;-63
2023/04/15 02:12:41;;;;;;;1.60;1.50;;;;;;;;;;5094743;28;20039;-63
2023/04/15 02:15:07;;;;;;;1.60;1.50;;;;;;;;;;5093923;28;20024;-63
2023/04/15 02:17:34;;;;;;;1.70;1.60;;;;;;;;;;5094681;28;20052;-63
2023/04/15 02:20:00;;;;;;;1.63;1.52;;;;;;;;;;5095338;28;20020;-62
2023/04/15 02:22:26;;;;;;;1.48;1.38;;;;;;;;;;5095285;28;20408;-62
2023/04/15 02:24:51;;;;;;;1.40;1.30;;;;;;;;;;5060179;28;20024;-62
2023/04/15 02:27:17;;;;;;;3.95;1.60;;;;;;;;;;5094850;28;20016;-62
2023/04/15 02:29:46;;;;;;;1.65;1.40;;;;;;;;;;5094876;28;20042;-62
2023/04/15 02:32:12;;;;;;;1.70;1.40;;;;;;;;;;5094723;28;20020;-62
2023/04/15 02:34:41;;;;;;;1.60;1.30;;;;;;;;;;5094510;28;20097;-62
2023/04/15 02:37:11;;;;;;;1.73;1.45;;;;;;;;;;5094947;28;20028;-63
2023/04/15 02:39:37;;;;;;;1.50;1.40;;;;;;;;;;5094941;28;20581;-62
2023/04/15 02:42:04;;;;;;;1.98;1.58;;;;;;;;;;5094546;28;20062;-62
2023/04/15 02:44:31;;;;;;;1.50;1.40;;;;;;;;;;5094375;28;20028;-62
2023/04/15 02:46:57;;;;;;;1.42;1.33;;;;;;;;;;5094396;28;20032;-62
2023/04/15 02:49:24;;;;;;;1.58;1.48;;;;;;;;;;5094178;28;20031;-62
2023/04/15 02:51:50;;;;;;;1.77;1.67;;;;;;;;;;5094611;28;20024;-62
2023/04/15 02:54:16;;;;;;;1.55;1.45;;;;;;;;;;5094676;28;20020;-62
2023/04/15 02:56:42;;;;;;;2.00;1.80;;;;;;;;;;5094232;28;20052;-62
2023/04/15 02:59:07;;;;;;;1.80;1.42;;;;;;;;;;5094232;28;20035;-62
2023/04/15 03:01:33;;;;;;;1.65;1.55;;;;;;;;;;5094185;28;20073;-62
2023/04/15 03:03:58;;;;;;;1.60;1.50;;;;;;;;;;5094343;28;20084;-62
2023/04/15 03:06:24;;;;;;;1.55;1.45;;;;;;;;;;5094107;28;20020;-62
2023/04/15 03:08:50;;;;;;;1.65;1.55;;;;;;;;;;5094169;28;20016;-62
2023/04/15 03:11:15;;;;;;;1.52;1.40;;;;;;;;;;5093960;28;20089;-62
2023/04/15 03:13:42;;;;;;;1.63;1.52;;;;;;;;;;5094257;28;20050;-62
2023/04/15 03:16:08;;;;;;;1.85;1.52;;;;;;;;;;5094250;28;20028;-63
2023/04/15 03:18:34;;;;;;;1.90;1.40;;;;;;;;;;5093866;28;20028;-62
2023/04/15 03:21:00;;;;;;;1.73;1.63;;;;;;;;;;5094100;28;20030;-62
2023/04/15 03:23:25;;;;;;;2.00;1.60;;;;;;;;;;5093692;28;20423;-63
2023/04/15 03:25:51;;;;;;;1.30;1.20;;;;;;;;;;5093710;28;20032;-62
2023/04/15 03:28:16;;;;;;;1.58;1.48;;;;;;;;;;5093709;28;20016;-63
2023/04/15 03:30:42;;;;;;;1.58;1.30;;;;;;;;;;5093823;28;20039;-62
2023/04/15 03:33:08;;;;;;;1.77;1.50;;;;;;;;;;5093646;28;20047;-62
2023/04/15 03:35:34;;;;;;;1.33;1.20;;;;;;;;;;5075504;28;20480;-62
2023/04/15 03:37:59;;;;;;;1.77;1.40;;;;;;;;;;5093484;28;20464;-63
2023/04/15 03:40:25;;;;;;;1.42;1.33;;;;;;;;;;5093464;28;20026;-62
2023/04/15 03:42:51;;;;;;;1.73;1.30;;;;;;;;;;5093499;28;20099;-62
2023/04/15 03:45:16;;;;;;;1.70;1.45;;;;;;;;;;5093553;28;20029;-62
2023/04/15 03:47:42;;;;;;;1.67;1.58;;;;;;;;;;5093320;28;20403;-62
2023/04/15 03:50:08;;;;;;;1.50;1.40;;;;;;;;;;5093256;28;20082;-63
2023/04/15 03:52:33;;;;;;;1.50;1.30;;;;;;;;;;5093202;28;20028;-62
2023/04/15 03:54:59;;;;;;;1.50;1.40;;;;;;;;;;5093263;28;20024;-62
2023/04/15 03:57:24;;;;;;;1.50;1.40;;;;;;;;;;5093455;28;20028;-63
2023/04/15 03:59:50;;;;;;;1.52;1.42;;;;;;;;;;5093214;28;20345;-62
2023/04/15 04:02:16;;;;;;;1.30;1.20;;;;;;;;;;5092676;28;20020;-63
2023/04/15 04:04:42;;;;;;;1.52;1.42;;;;;;;;;;5092886;28;20114;-63
2023/04/15 04:07:08;;;;;;;1.88;1.38;;;;;;;;;;5092975;28;20108;-63
2023/04/15 04:09:33;;;;;;;2.30;1.50;;;;;;;;;;5093147;28;20078;-62
2023/04/15 04:12:00;;;;;;;1.52;1.42;;;;;;;;;;5093213;28;20048;-62
2023/04/15 04:14:28;;;;;;;1.67;1.50;;;;;;;;;;5093134;28;20031;-62
2023/04/15 04:16:54;;;;;;;1.40;1.30;;;;;;;;;;5093102;28;20024;-62
2023/04/15 04:19:20;;;;;;;1.45;1.35;;;;;;;;;;5092814;28;20388;-61
2023/04/15 04:21:45;;;;;;;1.50;1.40;;;;;;;;;;5093049;28;20032;-62
2023/04/15 04:24:11;;;;;;;1.40;1.30;;;;;;;;;;5092530;28;20127;-62
2023/04/15 04:26:37;;;;;;;1.30;1.20;;;;;;;;;;5092752;28;20028;-62
2023/04/15 04:29:02;;;;;;;1.63;1.45;;;;;;;;;;5092675;28;20496;-62
2023/04/15 04:31:28;;;;;;;1.80;1.70;;;;;;;;;;5092829;28;20032;-62
2023/04/15 04:33:53;;;;;;;1.55;1.25;;;;;;;;;;5092385;28;20048;-62
2023/04/15 04:36:19;;;;;;;1.52;1.42;;;;;;;;;;5092554;28;20028;-61
2023/04/15 04:38:44;;;;;;;1.35;1.25;;;;;;;;;;5092463;28;20024;-61
2023/04/15 04:41:10;;;;;;;2.65;1.60;;;;;;;;;;5092842;28;20024;-61
2023/04/15 04:43:35;;;;;;;1.83;1.40;;;;;;;;;;5092273;28;20043;-61
2023/04/15 04:46:01;;;;;;;1.50;1.40;;;;;;;;;;5092446;28;20039;-61
2023/04/15 04:48:26;;;;;;;2.20;1.30;;;;;;;;;;5092388;28;20016;-61
2023/04/15 04:50:52;;;;;;;1.65;1.30;;;;;;;;;;5092499;28;20028;-61
2023/04/15 04:53:21;;;;;;;1.90;1.42;;;;;;;;;;5092630;28;20035;-61
2023/04/15 04:55:46;;;;;;;2.10;1.63;;;;;;;;;;5092375;28;20024;-61
2023/04/15 04:58:12;;;;;;;1.40;1.30;;;;;;;;;;5092220;28;20032;-62
2023/04/15 05:00:39;;;;;;;1.73;1.45;;;;;;;;;;5092302;28;20024;-61
2023/04/15 05:03:05;;;;;;;1.52;1.42;;;;;;;;;;5092492;28;20073;-62
2023/04/15 05:05:30;;;;;;;2.92;2.08;;;;;;;;;;5092261;28;20028;-61
2023/04/15 05:07:56;;;;;;;1.50;1.23;;;;;;;;;;5092270;28;20012;-62
2023/04/15 05:10:22;;;;;;;1.23;1.23;;;;;;;;;;5092188;28;20031;-61
2023/04/15 05:12:48;;;;;;;2.22;1.30;;;;;;;;;;5094321;28;20085;-61
2023/04/15 05:15:14;;;;;;;1.73;1.27;;;;;;;;;;5096215;28;20023;-61
2023/04/15 05:17:39;;;;;;;1.52;1.42;;;;;;;;;;5096353;28;20026;-62
2023/04/15 05:20:05;;;;;;;3.47;1.48;;;;;;;;;;5096486;28;20076;-60
2023/04/15 05:22:31;;;;;;;1.40;1.30;;;;;;;;;;5096024;28;20020;-60
2023/04/15 05:24:57;;;;;;;1.48;1.38;;;;;;;;;;5096037;28;20028;-60
2023/04/15 05:27:23;;;;;;;1.60;1.50;;;;;;;;;;5095979;28;20162;-61
2023/04/15 05:29:49;;;;;;;1.73;1.58;;;;;;;;;;5095829;28;20472;-60
2023/04/15 05:32:14;;;;;;;1.95;1.40;;;;;;;;;;5095932;28;20028;-61
2023/04/15 05:34:40;;;;;;;1.80;1.40;;;;;;;;;;5095679;28;20457;-60
2023/04/15 05:37:06;;;;;;;1.60;1.50;;;;;;;;;;5095676;28;20059;-60
2023/04/15 05:39:31;;;;;;;2.00;1.30;;;;;;;;;;5095767;28;20052;-60
2023/04/15 05:41:57;;;;;;;1.67;1.58;;;;;;;;;;5095979;28;20387;-60
2023/04/15 05:44:22;;;;;;;2.25;1.60;;;;;;;;;;5095792;28;20075;-60
2023/04/15 05:46:48;;;;;;;1.60;1.50;;;;;;;;;;5095874;28;20487;-60
2023/04/15 05:49:13;;;;;;;1.50;1.40;;;;;;;;;;5095620;28;20463;-60
2023/04/15 05:51:39;;;;;;;1.50;1.40;;;;;;;;;;5095669;28;20070;-60
2023/04/15 05:54:05;;;;;;;1.67;1.58;;;;;;;;;;5095513;28;20028;-60
2023/04/15 05:56:31;;;;;;;1.60;1.35;;;;;;;;;;5095372;28;20498;-60
2023/04/15 05:58:56;;;;;;;2.85;1.50;;;;;;;;;;5095506;28;20028;-60
2023/04/15 06:01:22;;;;;;;1.73;1.60;;;;;;;;;;5095415;28;20060;-60
2023/04/15 06:03:47;;;;;;;1.70;1.60;;;;;;;;;;5077127;28;20028;-60
2023/04/15 06:06:14;;;;;;;1.42;1.33;;;;;;;;;;5095568;28;20039;-60
2023/04/15 06:08:40;;;;;;;1.50;1.40;;;;;;;;;;5095349;28;20027;-60
2023/04/15 06:11:06;;;;;;;2.58;1.48;;;;;;;;;;5095096;28;20024;-60
2023/04/15 06:13:31;;;;;;;1.50;1.40;;;;;;;;;;5095519;28;20024;-60
2023/04/15 06:15:57;;;;;;;1.60;1.30;;;;;;;;;;5095342;28;20024;-60
2023/04/15 06:18:22;;;;;;;1.40;1.30;;;;;;;;;;5095365;28;20089;-60
2023/04/15 06:20:48;;;;;;;2.10;1.60;;;;;;;;;;5095222;28;20525;-60
2023/04/15 06:23:14;;;;;;;1.60;1.50;;;;;;;;;;5094338;28;20466;-60
2023/04/15 06:25:39;;;;;;;1.42;1.33;;;;;;;;;;5094775;28;20055;-60
2023/04/15 06:28:05;;;;;;;1.48;1.30;;;;;;;;;;5094860;28;20456;-59
2023/04/15 06:30:31;;;;;;;2.35;1.30;;;;;;;;;;5095024;28;20044;-60
2023/04/15 06:32:56;;;;;;;1.60;1.48;;;;;;;;;;5094643;28;20472;-60
2023/04/15 06:35:22;;;;;;;2.00;1.40;;;;;;;;;;5094708;28;20036;-60
2023/04/15 06:37:47;;;;;;;1.75;1.65;;;;;;;;;;5094697;28;20039;-60
2023/04/15 06:40:13;;;;;;;1.50;1.40;;;;;;;;;;5094888;28;20035;-60
2023/04/15 06:42:39;;;;;;;1.77;1.50;;;;;;;;;;5094663;28;20490;-60
2023/04/15 06:45:05;;;;;;;1.50;1.40;;;;;;;;;;5094390;28;20065;-60
2023/04/15 06:47:31;;;;;;;1.40;1.30;;;;;;;;;;5094821;28;20379;-60
2023/04/15 06:49:56;;;;;;;1.50;1.40;;;;;;;;;;5094346;28;20023;-62
2023/04/15 06:52:22;;;;;;;1.38;1.27;;;;;;;;;;5094185;28;20028;-60
2023/04/15 06:54:47;;;;;;;1.95;1.50;;;;;;;;;;5094584;28;20032;-60
2023/04/15 06:57:13;;;;;;;1.40;1.30;;;;;;;;;;5094539;28;20471;-60
2023/04/15 06:59:39;;;;;;;1.40;1.30;;;;;;;;;;5091885;28;20524;-62
2023/04/15 07:02:11;;;;;;;1.85;1.27;;;;;;;;;;5072325;28;20024;-60
2023/04/15 07:04:36;;;;;;;2.22;1.38;;;;;;;;;;5094313;28;20024;-61
2023/04/15 07:07:02;;;;;;;1.30;1.20;;;;;;;;;;5094117;28;20170;-60
2023/04/15 07:09:27;;;;;;;1.58;1.30;;;;;;;;;;5094233;28;20032;-60
2023/04/15 07:11:53;;;;;;;1.30;1.20;;;;;;;;;;5093971;28;20494;-60
2023/04/15 07:14:18;;;;;;;1.70;1.60;;;;;;;;;;5093982;28;20107;-62
2023/04/15 07:16:44;;;;;;;1.27;1.10;;;;;;;;;;5093898;28;20027;-62
2023/04/15 07:19:10;;;;;;;1.20;1.20;;;;;;;;;;5093820;28;20233;-62
2023/04/15 07:21:36;;;;;;;1.42;1.33;;;;;;;;;;5093687;28;20016;-62
2023/04/15 07:24:02;;;;;;;1.40;1.30;;;;;;;;;;5093845;28;20035;-62
2023/04/15 07:26:28;;;;;;;1.40;1.30;;;;;;;;;;5093948;28;20391;-61
2023/04/15 07:28:54;;;;;;;1.38;1.27;;;;;;;;;;5093831;28;20082;-62
2023/04/15 07:31:20;;;;;;;1.48;1.38;;;;;;;;;;5093459;28;20107;-60
2023/04/15 07:33:45;;;;;;;2.22;1.40;;;;;;;;;;5093206;28;20127;-62
2023/04/15 07:36:11;;;;;;;1.58;1.48;;;;;;;;;;5093288;28;20062;-60
2023/04/15 07:38:37;;;;;;;1.30;1.20;;;;;;;;;;5093296;28;20051;-62
2023/04/15 07:41:03;;;;;;;1.30;1.20;;;;;;;;;;5093479;28;20033;-62
2023/04/15 07:43:29;;;;;;;1.73;1.58;;;;;;;;;;5093373;28;20032;-62
2023/04/15 07:45:54;;;;;;;1.83;1.25;;;;;;;;;;5093142;28;20379;-62
2023/04/15 07:48:20;;;;;;;1.83;1.38;;;;;;;;;;5093189;28;20019;-62
2023/04/15 07:50:46;;;;;;;1.58;1.30;;;;;;;;;;5093133;28;20028;-63
2023/04/15 07:53:12;;;;;;;1.50;1.40;;;;;;;;;;5093353;28;20224;-62
2023/04/15 07:55:37;;;;;;;1.38;1.27;;;;;;;;;;5092945;28;20465;-62
2023/04/15 07:58:03;;;;;;;1.35;1.25;;;;;;;;;;5093212;28;20032;-62
2023/04/15 08:00:29;;;;;;;1.20;1.10;;;;;;;;;;5093067;28;20061;-61
2023/04/15 08:02:56;;;;;;;1.48;1.35;;;;;;;;;;5074824;28;20027;-62
2023/04/15 08:05:21;;;;;;;1.50;1.40;;;;;;;;;;5092996;28;20372;-62
2023/04/15 08:07:47;;;;;;;1.30;1.20;;;;;;;;;;5092954;28;20020;-63
2023/04/15 08:10:15;;;;;;;1.15;1.10;;;;;;;;;;5092924;28;20028;-62
2023/04/15 08:12:40;;;;;;;1.10;1.10;;;;;;;;;;5092778;28;20107;-63
2023/04/15 08:15:07;;;;;;;1.42;1.30;;;;;;;;;;5092827;28;20067;-62
2023/04/15 08:17:32;;;;;;;1.10;1.10;;;;;;;;;;5074547;28;20039;-62
2023/04/15 08:19:58;;;;;;;2.00;1.27;;;;;;;;;;5092248;28;20028;-63
2023/04/15 08:22:24;;;;;;;1.25;1.20;;;;;;;;;;5074069;28;20054;-62
2023/04/15 08:24:50;;;;;;;1.58;1.48;;;;;;;;;;5092393;28;20031;-63
2023/04/15 08:27:16;;;;;;;1.00;1.00;;;;;;;;;;5092030;28;20590;-61
2023/04/15 08:29:41;;;;;;;1.30;1.20;;;;;;;;;;5074266;28;20051;-63
2023/04/15 08:32:08;;;;;;;1.50;1.40;;;;;;;;;;5092552;28;20020;-62
2023/04/15 08:34:34;;;;;;;1.30;1.20;;;;;;;;;;5092077;28;20048;-64
2023/04/15 08:36:59;;;;;;;1.30;1.20;;;;;;;;;;5092236;28;20053;-62
2023/04/15 08:39:26;;;;;;;1.23;1.20;;;;;;;;;;5091773;28;20012;-61
2023/04/15 08:42:00;;;;;;;1.10;1.10;;;;;;;;;;5064007;28;20058;-62
2023/04/15 08:44:28;;;;;;;1.30;1.20;;;;;;;;;;5092301;28;20032;-62
2023/04/15 08:46:55;;;;;;;1.30;1.20;;;;;;;;;;5092145;28;20020;-62
2023/04/15 08:49:25;;;;;;;1.42;1.33;;;;;;;;;;5092434;28;20047;-62
2023/04/15 08:51:51;;;;;;;1.27;1.17;;;;;;;;;;5086288;28;20066;-63
2023/04/15 08:54:18;;;;;;;1.60;1.50;;;;;;;;;;5088404;28;20176;-63
2023/04/15 08:56:44;;;;;;;1.30;1.20;;;;;;;;;;5090769;28;20028;-63
2023/04/15 08:59:12;;;;;;;1.35;1.25;;;;;;;;;;5089174;28;20043;-63
2023/04/15 09:01:39;;;;;;;1.20;1.10;;;;;;;;;;5091280;28;20028;-63
2023/04/15 09:04:06;;;;;;;1.30;1.20;;;;;;;;;;5088367;28;20391;-64
2023/04/15 09:06:32;;;;;;;1.30;1.20;;;;;;;;;;5087995;28;20488;-64
2023/04/15 09:08:58;;;;;;;1.23;1.20;;;;;;;;;;5090451;28;20026;-63
2023/04/15 09:11:23;;;;;;;1.30;1.20;;;;;;;;;;5090407;28;20064;-62
2023/04/15 09:13:50;;;;;;;1.48;1.38;;;;;;;;;;5089510;28;20024;-63
2023/04/15 09:16:16;;;;;;;0.98;0.98;;;;;;;;;;5090549;28;20030;-63
2023/04/15 09:18:42;;;;;;;1.20;1.10;;;;;;;;;;5088611;28;20020;-63
2023/04/15 09:21:12;;;;;;;1.33;1.23;;;;;;;;;;5089030;28;20024;-64
2023/04/15 09:23:41;;;;;;;1.50;1.40;;;;;;;;;;5090000;28;20024;-63
2023/04/15 09:26:07;;;;;;;1.55;1.30;;;;;;;;;;5089721;28;20028;-65
2023/04/15 09:28:34;;;;;;;1.30;1.20;;;;;;;;;;5091624;28;20035;-62
2023/04/15 09:31:01;;;;;;;1.23;1.13;;;;;;;;;;5092336;28;20070;-63
2023/04/15 09:33:28;;;;;;;1.33;1.23;;;;;;;;;;5092022;28;20043;-62
2023/04/15 09:36:02;;;;;;;1.10;1.10;;;;;;;;;;5091961;28;20020;-63
2023/04/15 09:38:28;;;;;;;1.25;1.20;;;;;;;;;;5092250;28;20107;-63
2023/04/15 09:40:54;;;;;;;1.45;1.35;;;;;;;;;;5092068;28;20514;-63
2023/04/15 09:43:21;;;;;;;1.38;1.27;;;;;;;;;;5091879;28;20035;-64
2023/04/15 09:45:51;;;;;;;1.33;1.23;;;;;;;;;;5091982;28;20032;-63
2023/04/15 09:48:21;;;;;;;1.42;1.33;;;;;;;;;;5086218;28;20114;-64
2023/04/15 09:50:52;;;;;;;1.35;1.25;;;;;;;;;;5087782;28;20487;-63
2023/04/15 09:53:21;;;;;;;1.50;1.40;;;;;;;;;;5091533;28;20036;-63
2023/04/15 09:55:50;;;;;;;1.55;1.40;;;;;;;;;;5090866;28;20024;-63
2023/04/15 09:58:26;;;;;;;1.50;1.40;;;;;;;;;;5091855;28;20467;-62
2023/04/15 10:00:53;;;;;;;1.25;1.20;;;;;;;;;;5086604;28;20048;-64
2023/04/15 10:03:22;;;;;;;1.20;1.20;;;;;;;;;;5079433;28;20024;-63
2023/04/15 10:05:50;;;;;;;1.40;1.30;;;;;;;;;;5075172;28;20058;-62
2023/04/15 10:08:21;;;;;;;1.25;1.15;;;;;;;;;;5074901;28;20029;-66
2023/04/15 10:10:47;;;;;;;1.48;1.20;;;;;;;;;;5075324;28;20410;-63
2023/04/15 10:13:17;;;;;;;1.40;1.30;;;;;;;;;;5074877;28;20025;-62
2023/04/15 10:15:46;;;;;;;1.80;1.40;;;;;;;;;;5091678;28;20020;-62
2023/04/15 10:18:18;;;;;;;1.45;1.35;;;;;;;;;;5093220;28;20061;-63
2023/04/15 10:20:45;;;;;;;1.40;1.30;;;;;;;;;;5093718;28;20020;-63
2023/04/15 10:23:11;;;;;;;1.40;1.30;;;;;;;;;;5092170;28;20024;-63
2023/04/15 10:25:37;;;;;;;1.25;1.20;;;;;;;;;;5093170;28;20082;-63
2023/04/15 10:28:05;;;;;;;1.38;1.27;;;;;;;;;;5093775;28;20063;-63
2023/04/15 10:30:32;;;;;;;1.40;1.30;;;;;;;;;;5094071;28;20032;-62
2023/04/15 10:32:59;;;;;;;1.50;1.40;;;;;;;;;;5093983;28;20024;-63
2023/04/15 10:35:25;;;;;;;1.30;1.20;;;;;;;;;;5094340;28;20547;-62
2023/04/15 10:37:51;;;;;;;1.58;1.48;;;;;;;;;;5094466;28;20099;-63
2023/04/15 10:40:27;;;;;;;1.42;1.33;;;;;;;;;;5094940;28;20020;-63
2023/04/15 10:42:58;;;;;;;1.73;1.50;;;;;;;;;;5094656;28;20035;-63
2023/04/15 10:45:26;;;;;;;1.58;1.40;;;;;;;;;;5094730;28;20028;-63
2023/04/15 10:47:56;;;;;;;1.23;1.13;;;;;;;;;;5094565;28;20032;-62
2023/04/15 10:50:25;;;;;;;1.50;1.40;;;;;;;;;;5094397;28;20024;-63
2023/04/15 10:52:51;;;;;;;1.30;1.20;;;;;;;;;;5094396;28;20119;-62
2023/04/15 10:55:23;;;;;;;1.35;1.25;;;;;;;;;;5094244;28;20021;-63
2023/04/15 10:57:59;;;;;;;1.30;1.20;;;;;;;;;;5094282;28;20111;-63
2023/04/15 11:00:28;;;;;;;1.40;1.30;;;;;;;;;;5093391;28;20020;-62
2023/04/15 11:02:55;;;;;;;1.55;1.45;;;;;;;;;;5094329;28;20498;-63
2023/04/15 11:05:42;;;;;;;1.67;1.20;;;;;;;;;;5094270;28;20028;-63
2023/04/15 11:08:09;;;;;;;1.38;1.27;;;;;;;;;;5083337;28;20032;-62
2023/04/15 11:10:34;;;;;;;1.30;1.20;;;;;;;;;;5093924;28;20027;-62
2023/04/15 11:13:04;;;;;;;1.42;1.33;;;;;;;;;;5093951;28;20032;-62
2023/04/15 11:15:43;;;;;;;1.38;1.27;;;;;;;;;;5094010;28;20024;-63
2023/04/15 11:18:16;;;;;;;1.40;1.30;;;;;;;;;;5094239;28;20028;-62
2023/04/15 11:20:49;;;;;;;1.40;1.30;;;;;;;;;;5094075;28;20028;-63
2023/04/15 11:23:16;;;;;;;1.33;1.23;;;;;;;;;;5093761;28;20126;-62
2023/04/15 11:25:42;;;;;;;1.50;1.40;;;;;;;;;;5094042;28;20019;-62
2023/04/15 11:28:08;;;;;;;1.10;1.10;;;;;;;;;;5093956;28;20027;-62
2023/04/15 11:30:36;;;;;;;1.30;1.20;;;;;;;;;;5093720;28;20463;-62
2023/04/15 11:33:04;;;;;;;1.17;1.13;;;;;;;;;;5093784;28;20483;-63
2023/04/15 11:35:30;;;;;;;1.70;1.35;;;;;;;;;;5093580;28;20468;-62
2023/04/15 11:37:56;;;;;;;1.30;1.20;;;;;;;;;;5093843;28;20024;-62
2023/04/15 11:40:28;;;;;;;1.33;1.23;;;;;;;;;;5093445;28;20032;-63
2023/04/15 11:43:11;;;;;;;1.40;1.30;;;;;;;;;;5093766;28;20035;-62
2023/04/15 11:45:46;;;;;;;1.35;1.25;;;;;;;;;;5093637;28;20024;-63
2023/04/15 11:48:13;;;;;;;1.50;1.25;;;;;;;;;;5093615;28;20031;-62
2023/04/15 11:50:42;;;;;;;1.40;1.30;;;;;;;;;;5093593;28;20509;-62
2023/04/15 11:53:10;;;;;;;1.40;1.30;;;;;;;;;;5093282;28;20016;-62
2023/04/15 11:55:47;;;;;;;1.20;1.10;;;;;;;;;;5093460;28;20085;-62
2023/04/15 11:58:21;;;;;;;1.50;1.40;;;;;;;;;;5093408;28;20030;-62
2023/04/15 12:00:52;;;;;;;1.33;1.23;;;;;;;;;;5093506;28;20048;-63
2023/04/15 12:03:37;;;;;;;1.20;1.10;;;;;;;;;;5093153;28;20033;-63
2023/04/15 12:06:09;;;;;;;1.30;1.23;;;;;;;;;;5093147;28;20232;-62
2023/04/15 12:08:47;;;;;;;1.50;1.27;;;;;;;;;;5093253;28;20383;-62
2023/04/15 12:11:16;;;;;;;1.20;1.20;;;;;;;;;;5093226;28;20407;-62
2023/04/15 12:13:48;;;;;;;1.20;1.10;;;;;;;;;;5093229;28;20028;-62
2023/04/15 12:16:18;;;;;;;1.42;1.23;;;;;;;;;;5092788;28;20103;-63
2023/04/15 12:18:51;;;;;;;1.35;1.30;;;;;;;;;;5092740;28;20052;-62
2023/04/15 12:21:21;;;;;;;1.42;1.33;;;;;;;;;;5092654;28;20020;-62
2023/04/15 12:23:57;;;;;;;1.50;1.40;;;;;;;;;;5092373;28;20055;-62
2023/04/15 12:26:47;;;;;;;1.40;1.30;;;;;;;;;;5093043;28;20028;-63
2023/04/15 12:29:15;;;;;;;1.45;1.30;;;;;;;;;;5082750;28;20048;-62
2023/04/15 12:31:52;;;;;;;1.75;1.65;;;;;;;;;;5092564;28;20103;-62
2023/04/15 12:34:25;;;;;;;1.45;1.35;;;;;;;;;;5092558;28;20038;-62
2023/04/15 12:36:51;;;;;;;1.20;1.10;;;;;;;;;;5092639;28;20553;-63
2023/04/15 12:39:17;;;;;;;1.60;1.50;;;;;;;;;;5092839;28;20024;-63
2023/04/15 12:41:42;;;;;;;1.42;1.33;;;;;;;;;;5092524;28;20365;-62
2023/04/15 12:44:08;;;;;;;1.25;1.23;;;;;;;;;;5092352;28;20020;-62
2023/04/15 12:46:34;;;;;;;1.25;1.15;;;;;;;;;;5092711;28;20050;-62
2023/04/15 12:49:00;;;;;;;1.30;1.20;;;;;;;;;;5092741;28;20020;-62
2023/04/15 12:51:26;;;;;;;1.55;1.40;;;;;;;;;;5092605;28;20063;-62
2023/04/15 12:53:52;;;;;;;1.27;1.17;;;;;;;;;;5074277;28;20031;-62
2023/04/15 12:56:17;;;;;;;1.73;1.33;;;;;;;;;;5092646;28;20024;-62
2023/04/15 12:58:43;;;;;;;1.40;1.30;;;;;;;;;;5092579;28;20490;-62
2023/04/15 13:01:10;;;;;;;1.35;1.30;;;;;;;;;;5092586;28;20479;-62
2023/04/15 13:03:35;;;;;;;1.45;1.35;;;;;;;;;;5092232;28;20028;-63
2023/04/15 13:06:03;;;;;;;1.67;1.48;;;;;;;;;;5092166;28;20020;-62
2023/04/15 13:08:29;;;;;;;1.17;1.17;;;;;;;;;;5092314;28;20016;-62
2023/04/15 13:10:55;;;;;;;1.15;1.15;;;;;;;;;;5092234;28;20024;-62
2023/04/15 13:13:21;;;;;;;1.30;1.20;;;;;;;;;;5092182;28;20063;-63
2023/04/15 13:15:46;;;;;;;1.48;1.38;;;;;;;;;;5092522;28;20043;-62
2023/04/15 13:18:12;;;;;;;1.38;1.27;;;;;;;;;;5092152;28;20035;-62
2023/04/15 13:20:38;;;;;;;1.40;1.30;;;;;;;;;;5092194;28;20028;-62
2023/04/15 13:23:03;;;;;;;1.75;1.30;;;;;;;;;;5092237;28;20027;-62
2023/04/15 13:25:29;;;;;;;1.40;1.30;;;;;;;;;;5092082;28;20112;-62
2023/04/15 13:27:54;;;;;;;1.42;1.33;;;;;;;;;;5092132;28;20050;-62
2023/04/15 13:30:20;;;;;;;1.40;1.30;;;;;;;;;;5092262;28;20494;-63
2023/04/15 13:32:45;;;;;;;1.50;1.40;;;;;;;;;;5092276;28;20110;-62
2023/04/15 13:35:11;;;;;;;1.38;1.27;;;;;;;;;;5095913;28;20084;-62
2023/04/15 13:37:38;;;;;;;1.20;1.20;;;;;;;;;;5095886;28;20168;-62
2023/04/15 13:40:06;;;;;;;1.50;1.40;;;;;;;;;;5095770;28;20024;-64
2023/04/15 13:42:31;;;;;;;1.20;1.20;;;;;;;;;;5095715;28;20027;-62
2023/04/15 13:44:57;;;;;;;1.98;1.20;;;;;;;;;;5095629;28;20024;-62
2023/04/15 13:47:22;;;;;;;1.40;1.30;;;;;;;;;;5095734;28;20032;-63
2023/04/15 13:49:48;;;;;;;1.40;1.30;;;;;;;;;;5095545;28;20052;-62
2023/04/15 13:52:13;;;;;;;1.55;1.45;;;;;;;;;;5095683;28;20022;-63
2023/04/15 13:54:39;;;;;;;1.45;1.35;;;;;;;;;;5095625;28;20085;-63
2023/04/15 13:57:05;;;;;;;2.58;1.33;;;;;;;;;;5095443;28;20039;-63
2023/04/15 13:59:33;;;;;;;1.60;1.50;;;;;;;;;;5095450;28;20024;-62
2023/04/15 14:01:59;;;;;;;1.50;1.40;;;;;;;;;;5095508;28;20482;-62
2023/04/15 14:04:24;;;;;;;1.40;1.30;;;;;;;;;;5095149;28;20024;-62
2023/04/15 14:06:50;;;;;;;1.30;1.20;;;;;;;;;;5095390;28;20024;-62
2023/04/15 14:09:16;;;;;;;1.48;1.38;;;;;;;;;;5095225;28;20024;-62
2023/04/15 14:11:41;;;;;;;1.48;1.38;;;;;;;;;;5095445;28;20048;-62
2023/04/15 14:14:07;;;;;;;1.60;1.50;;;;;;;;;;5095262;28;20535;-63
2023/04/15 14:16:33;;;;;;;1.50;1.40;;;;;;;;;;5095196;28;20032;-62
2023/04/15 14:18:59;;;;;;;1.50;1.40;;;;;;;;;;5095008;28;20108;-62
2023/04/15 14:21:26;;;;;;;1.42;1.33;;;;;;;;;;5095407;28;20103;-62
2023/04/15 14:23:52;;;;;;;1.80;1.60;;;;;;;;;;5095158;28;20016;-63
2023/04/15 14:26:18;;;;;;;1.38;1.20;;;;;;;;;;5094971;28;20027;-62
2023/04/15 14:28:44;;;;;;;1.65;1.55;;;;;;;;;;5094946;28;20024;-63
2023/04/15 14:31:10;;;;;;;1.52;1.40;;;;;;;;;;5095097;28;20024;-63
2023/04/15 14:33:35;;;;;;;1.40;1.30;;;;;;;;;;5094696;28;20110;-62
2023/04/15 14:36:01;;;;;;;1.40;1.30;;;;;;;;;;5095000;28;20020;-62
2023/04/15 14:38:26;;;;;;;1.40;1.30;;;;;;;;;;5094751;28;20020;-62
2023/04/15 14:40:52;;;;;;;1.38;1.27;;;;;;;;;;5094934;28;20032;-62